This is the latest recevied weather packets stored in our database for station/object DH5DY-6. If no packets are shown the sender has not sent any weather packets the latest 10 day(s).
| Time | Temp. | Humidity | Pressure | Rain* | Wind** | Luminosity | Snow |
|---|---|---|---|---|---|---|---|
| 1777738100 | 25° C | 38% | 1014.5 hPa | 0 mm | - | 285 W/m² | - |
| 1777736300 | 24.44° C | 39% | 1014.8 hPa | 0 mm | - | 376 W/m² | - |
| 1777734499 | 24.44° C | 39% | 1015.1 hPa | 0 mm | - | 265 W/m² | - |
| 1777733899 | 25° C | 38% | 1015.3 hPa | 0 mm | - | 285 W/m² | - |
| 1777731499 | 25° C | 39% | 1015.7 hPa | 0 mm | - | 587 W/m² | - |
| 1777729099 | 25° C | 39% | 1015.8 hPa | 0 mm | - | 394 W/m² | - |
| 1777727899 | 25° C | 40% | 1016 hPa | 0 mm | - | 531 W/m² | - |
| 1777726099 | 25° C | 40% | 1016.3 hPa | 0 mm | - | 717 W/m² | - |
| 1777721898 | 23.89° C | 43% | 1017.3 hPa | 0 mm | - | 798 W/m² | - |
| 1777720698 | 23.33° C | 41% | 1017.5 hPa | 0 mm | - | 589 W/m² | - |
| 1777718298 | 22.78° C | 38% | 1017.8 hPa | 0 mm | - | 619 W/m² | - |
| 1777715298 | 21.67° C | 40% | 1018.5 hPa | 0 mm | - | 652 W/m² | - |
| 1777713498 | 20.56° C | 45% | 1018.7 hPa | 0 mm | - | 664 W/m² | - |
| 1777712298 | 20° C | 47% | 1019 hPa | 0 mm | - | 589 W/m² | - |
| 1777711099 | 18.89° C | 45% | 1019.2 hPa | 0 mm | - | 566 W/m² | - |
| 1777710498 | 18.89° C | 49% | 1019.3 hPa | 0 mm | - | 540 W/m² | - |
| 1777709298 | 17.78° C | 47% | 1019.2 hPa | 0 mm | - | 464 W/m² | - |
| 1777708697 | 17.22° C | 49% | 1019.3 hPa | 0 mm | - | 397 W/m² | - |
| 1777707498 | 16.11° C | 54% | 1019.3 hPa | 0 mm | - | 452 W/m² | - |
| 1777706898 | 15° C | 56% | 1019.5 hPa | 0 mm | - | 420 W/m² | - |
| 1777706297 | 14.44° C | 61% | 1019.5 hPa | 0 mm | - | 311 W/m² | - |
| 1777703297 | 10.56° C | 76% | 1019.6 hPa | 0 mm | - | 56 W/m² | - |
| 1777702697 | 9.44° C | 79% | 1019.6 hPa | 0 mm | - | 53 W/m² | - |
| 1777700896 | 6.11° C | 87% | 1019.7 hPa | 0 mm | - | 44 W/m² | - |
| 1777697897 | 4.44° C | 89% | 1019.8 hPa | 0 mm | - | 39 W/m² | - |
* Rain latest hour (hover to see other rain measurements)
** Current wind speed in m/s (hover to see current wind gust speed)